sensor_id;sensor_type;location;lat;lon;timestamp;pressure;altitude;pressure_sealevel;temperature;humidity
67931;BME280;63902;52.000;5.954;2023-12-20T00:00:47;101114.00;;;5.83;100.00
67931;BME280;63902;52.000;5.954;2023-12-20T00:01:48;101114.88;;;5.82;100.00
67931;BME280;63902;52.000;5.954;2023-12-20T00:02:48;101112.22;;;5.83;100.00
67931;BME280;63902;52.000;5.954;2023-12-20T00:03:48;101110.47;;;5.84;100.00
67931;BME280;63902;52.000;5.954;2023-12-20T00:04:49;101102.63;;;5.79;100.00
67931;BME280;63902;52.000;5.954;2023-12-20T00:05:50;101113.16;;;5.81;100.00
67931;BME280;63902;52.000;5.954;2023-12-20T00:06:50;101103.53;;;5.80;100.00
67931;BME280;63902;52.000;5.954;2023-12-20T00:07:51;101103.53;;;5.80;100.00
67931;BME280;63902;52.000;5.954;2023-12-20T00:08:51;101108.81;;;5.78;100.00
67931;BME280;63902;52.000;5.954;2023-12-20T00:09:51;101107.94;;;5.78;100.00
67931;BME280;63902;52.000;5.954;2023-12-20T00:10:52;101108.81;;;5.77;100.00
67931;BME280;63902;52.000;5.954;2023-12-20T00:11:52;101100.06;;;5.76;100.00
67931;BME280;63902;52.000;5.954;2023-12-20T00:12:54;101104.44;;;5.76;100.00
67931;BME280;63902;52.000;5.954;2023-12-20T00:13:55;101097.50;;;5.72;100.00
67931;BME280;63902;52.000;5.954;2023-12-20T00:14:55;101106.22;;;5.74;100.00
67931;BME280;63902;52.000;5.954;2023-12-20T00:15:55;101115.91;;;5.73;100.00
67931;BME280;63902;52.000;5.954;2023-12-20T00:16:56;101108.03;;;5.72;100.00
67931;BME280;63902;52.000;5.954;2023-12-20T00:17:56;101108.03;;;5.72;100.00
67931;BME280;63902;52.000;5.954;2023-12-20T00:18:57;101100.16;;;5.72;100.00
67931;BME280;63902;52.000;5.954;2023-12-20T00:19:57;101107.16;;;5.71;100.00
67931;BME280;63902;52.000;5.954;2023-12-20T00:20:58;101105.41;;;5.70;100.00
67931;BME280;63902;52.000;5.954;2023-12-20T00:21:58;101104.56;;;5.70;100.00
67931;BME280;63902;52.000;5.954;2023-12-20T00:22:59;101111.56;;;5.71;100.00
67931;BME280;63902;52.000;5.954;2023-12-20T00:23:59;101108.91;;;5.71;100.00
67931;BME280;63902;52.000;5.954;2023-12-20T00:24:59;101108.91;;;5.71;100.00
67931;BME280;63902;52.000;5.954;2023-12-20T00:26:00;101120.34;;;5.70;100.00
67931;BME280;63902;52.000;5.954;2023-12-20T00:27:00;101114.22;;;5.69;100.00
67931;BME280;63902;52.000;5.954;2023-12-20T00:28:02;101107.25;;;5.67;100.00
67931;BME280;63902;52.000;5.954;2023-12-20T00:29:03;101105.47;;;5.69;100.00
67931;BME280;63902;52.000;5.954;2023-12-20T00:30:04;101101.13;;;5.66;100.00
67931;BME280;63902;52.000;5.954;2023-12-20T00:31:05;101098.44;;;5.68;100.00
67931;BME280;63902;52.000;5.954;2023-12-20T00:32:06;101094.94;;;5.67;100.00
67931;BME280;63902;52.000;5.954;2023-12-20T00:33:06;101087.06;;;5.66;100.00
67931;BME280;63902;52.000;5.954;2023-12-20T00:34:07;101096.78;;;5.64;100.00
67931;BME280;63902;52.000;5.954;2023-12-20T00:35:07;101101.13;;;5.65;100.00
67931;BME280;63902;52.000;5.954;2023-12-20T00:36:08;101088.84;;;5.65;100.00
67931;BME280;63902;52.000;5.954;2023-12-20T00:37:08;101092.31;;;5.66;100.00
67931;BME280;63902;52.000;5.954;2023-12-20T00:38:08;101092.31;;;5.66;100.00
67931;BME280;63902;52.000;5.954;2023-12-20T00:39:09;101088.81;;;5.67;100.00
67931;BME280;63902;52.000;5.954;2023-12-20T00:40:10;101087.97;;;5.66;100.00
67931;BME280;63902;52.000;5.954;2023-12-20T00:41:11;101092.31;;;5.67;100.00
67931;BME280;63902;52.000;5.954;2023-12-20T00:42:11;101091.47;;;5.67;100.00
67931;BME280;63902;52.000;5.954;2023-12-20T00:43:13;101094.97;;;5.66;100.00
67931;BME280;63902;52.000;5.954;2023-12-20T00:44:13;101105.50;;;5.66;100.00
67931;BME280;63902;52.000;5.954;2023-12-20T00:45:14;101101.13;;;5.65;100.00
67931;BME280;63902;52.000;5.954;2023-12-20T00:46:14;101108.16;;;5.63;100.00
67931;BME280;63902;52.000;5.954;2023-12-20T00:47:15;101101.19;;;5.61;100.00
67931;BME280;63902;52.000;5.954;2023-12-20T00:48:15;101108.22;;;5.61;100.00
67931;BME280;63902;52.000;5.954;2023-12-20T00:49:16;101107.38;;;5.59;100.00
67931;BME280;63902;52.000;5.954;2023-12-20T00:50:16;101109.13;;;5.58;100.00
67931;BME280;63902;52.000;5.954;2023-12-20T00:51:16;101102.13;;;5.57;100.00
67931;BME280;63902;52.000;5.954;2023-12-20T00:52:17;101117.03;;;5.58;100.00
67931;BME280;63902;52.000;5.954;2023-12-20T00:53:18;101107.41;;;5.56;100.00
67931;BME280;63902;52.000;5.954;2023-12-20T00:54:18;101107.41;;;5.56;100.00
67931;BME280;63902;52.000;5.954;2023-12-20T00:55:19;101106.56;;;5.55;100.00
67931;BME280;63902;52.000;5.954;2023-12-20T00:56:19;101099.53;;;5.54;100.00
67931;BME280;63902;52.000;5.954;2023-12-20T00:57:20;101109.22;;;5.52;100.00
67931;BME280;63902;52.000;5.954;2023-12-20T00:58:22;101105.75;;;5.52;100.00
67931;BME280;63902;52.000;5.954;2023-12-20T00:59:22;101105.69;;;5.53;100.00
67931;BME280;63902;52.000;5.954;2023-12-20T01:00:22;101113.59;;;5.53;100.00
67931;BME280;63902;52.000;5.954;2023-12-20T01:01:23;101102.19;;;5.53;100.00
67931;BME280;63902;52.000;5.954;2023-12-20T01:02:23;101102.25;;;5.50;100.00
67931;BME280;63902;52.000;5.954;2023-12-20T01:03:24;101102.25;;;5.48;100.00
67931;BME280;63902;52.000;5.954;2023-12-20T01:04:24;101105.75;;;5.49;100.00
67931;BME280;63902;52.000;5.954;2023-12-20T01:05:25;101097.03;;;5.47;100.00
67931;BME280;63902;52.000;5.954;2023-12-20T01:06:25;101096.19;;;5.46;100.00
67931;BME280;63902;52.000;5.954;2023-12-20T01:07:26;101099.69;;;5.45;100.00
67931;BME280;63902;52.000;5.954;2023-12-20T01:08:26;101090.06;;;5.43;100.00
67931;BME280;63902;52.000;5.954;2023-12-20T01:09:26;101100.59;;;5.44;100.00
67931;BME280;63902;52.000;5.954;2023-12-20T01:10:27;101103.28;;;5.39;100.00
67931;BME280;63902;52.000;5.954;2023-12-20T01:11:27;101109.38;;;5.42;100.00
67931;BME280;63902;52.000;5.954;2023-12-20T01:12:28;101104.13;;;5.40;100.00
67931;BME280;63902;52.000;5.954;2023-12-20T01:13:30;101111.16;;;5.41;100.00
67931;BME280;63902;52.000;5.954;2023-12-20T01:14:30;101099.78;;;5.41;100.00
67931;BME280;63902;52.000;5.954;2023-12-20T01:15:31;101101.50;;;5.40;100.00
67931;BME280;63902;52.000;5.954;2023-12-20T01:16:31;101091.91;;;5.37;100.00
67931;BME280;63902;52.000;5.954;2023-12-20T01:17:32;101100.69;;;5.38;100.00
67931;BME280;63902;52.000;5.954;2023-12-20T01:18:32;101090.19;;;5.36;100.00
67931;BME280;63902;52.000;5.954;2023-12-20T01:19:32;101089.31;;;5.36;100.00
67931;BME280;63902;52.000;5.954;2023-12-20T01:20:33;101091.03;;;5.37;100.00
67931;BME280;63902;52.000;5.954;2023-12-20T01:21:33;101087.53;;;5.36;100.00
67931;BME280;63902;52.000;5.954;2023-12-20T01:22:34;101087.59;;;5.35;100.00
67931;BME280;63902;52.000;5.954;2023-12-20T01:23:34;101093.66;;;5.37;100.00
67931;BME280;63902;52.000;5.954;2023-12-20T01:24:35;101098.06;;;5.38;100.00
67931;BME280;63902;52.000;5.954;2023-12-20T01:25:35;101105.91;;;5.39;100.00
67931;BME280;63902;52.000;5.954;2023-12-20T01:26:36;101103.28;;;5.39;100.00
67931;BME280;63902;52.000;5.954;2023-12-20T01:27:36;101102.41;;;5.39;100.00
67931;BME280;63902;52.000;5.954;2023-12-20T01:28:38;101102.47;;;5.34;100.00
67931;BME280;63902;52.000;5.954;2023-12-20T01:29:38;101099.84;;;5.36;100.00
67931;BME280;63902;52.000;5.954;2023-12-20T01:30:39;101095.47;;;5.35;100.00
67931;BME280;63902;52.000;5.954;2023-12-20T01:31:40;101095.50;;;5.32;100.00
67931;BME280;63902;52.000;5.954;2023-12-20T01:32:40;101090.22;;;5.32;100.00
67931;BME280;63902;52.000;5.954;2023-12-20T01:33:40;101097.25;;;5.31;100.00
67931;BME280;63902;52.000;5.954;2023-12-20T01:34:41;101096.41;;;5.31;100.00
67931;BME280;63902;52.000;5.954;2023-12-20T01:35:41;101099.94;;;5.30;100.00
67931;BME280;63902;52.000;5.954;2023-12-20T01:36:43;101094.72;;;5.25;100.00
67931;BME280;63902;52.000;5.954;2023-12-20T01:37:43;101093.81;;;5.29;100.00
67931;BME280;63902;52.000;5.954;2023-12-20T01:38:43;101092.03;;;5.28;100.00
67931;BME280;63902;52.000;5.954;2023-12-20T01:39:44;101088.56;;;5.26;100.00
67931;BME280;63902;52.000;5.954;2023-12-20T01:40:44;101085.97;;;5.25;100.00
67931;BME280;63902;52.000;5.954;2023-12-20T01:41:45;101093.88;;;5.23;100.00
67931;BME280;63902;52.000;5.954;2023-12-20T01:42:45;101087.75;;;5.23;100.00
67931;BME280;63902;52.000;5.954;2023-12-20T01:43:47;101094.72;;;5.25;100.00
67931;BME280;63902;52.000;5.954;2023-12-20T01:44:47;101096.50;;;5.25;100.00
67931;BME280;63902;52.000;5.954;2023-12-20T01:45:48;101092.16;;;5.22;100.00
67931;BME280;63902;52.000;5.954;2023-12-20T01:46:48;101090.38;;;5.24;100.00
67931;BME280;63902;52.000;5.954;2023-12-20T01:47:49;101090.38;;;5.24;100.00
67931;BME280;63902;52.000;5.954;2023-12-20T01:48:50;101088.66;;;5.22;100.00
67931;BME280;63902;52.000;5.954;2023-12-20T01:49:51;101093.88;;;5.25;100.00
67931;BME280;63902;52.000;5.954;2023-12-20T01:50:52;101097.34;;;5.25;100.00
67931;BME280;63902;52.000;5.954;2023-12-20T01:51:52;101092.97;;;5.26;100.00
67931;BME280;63902;52.000;5.954;2023-12-20T01:52:53;101096.44;;;5.26;100.00
67931;BME280;63902;52.000;5.954;2023-12-20T01:53:57;101096.44;;;5.26;100.00
67931;BME280;63902;52.000;5.954;2023-12-20T01:54:58;101104.34;;;5.26;100.00
67931;BME280;63902;52.000;5.954;2023-12-20T01:55:59;101086.03;;;5.22;100.00
67931;BME280;63902;52.000;5.954;2023-12-20T01:57:00;101095.63;;;5.24;100.00
67931;BME280;63902;52.000;5.954;2023-12-20T01:58:01;101098.22;;;5.26;100.00
67931;BME280;63902;52.000;5.954;2023-12-20T01:59:03;101097.34;;;5.27;100.00
67931;BME280;63902;52.000;5.954;2023-12-20T02:00:05;101110.47;;;5.28;100.00
67931;BME280;63902;52.000;5.954;2023-12-20T02:01:05;101100.84;;;5.27;100.00
67931;BME280;63902;52.000;5.954;2023-12-20T02:02:07;101097.31;;;5.28;100.00
67931;BME280;63902;52.000;5.954;2023-12-20T02:03:07;101092.91;;;5.29;100.00
67931;BME280;63902;52.000;5.954;2023-12-20T02:04:08;101099.09;;;5.26;100.00
67931;BME280;63902;52.000;5.954;2023-12-20T02:05:09;101090.31;;;5.26;100.00
67931;BME280;63902;52.000;5.954;2023-12-20T02:06:10;101097.41;;;5.24;100.00
67931;BME280;63902;52.000;5.954;2023-12-20T02:07:11;101097.34;;;5.27;100.00
67931;BME280;63902;52.000;5.954;2023-12-20T02:08:11;101105.25;;;5.27;100.00
67931;BME280;63902;52.000;5.954;2023-12-20T02:09:12;101099.94;;;5.28;100.00
67931;BME280;63902;52.000;5.954;2023-12-20T02:10:14;101102.56;;;5.28;100.00
67931;BME280;63902;52.000;5.954;2023-12-20T02:11:16;101099.06;;;5.29;100.00
67931;BME280;63902;52.000;5.954;2023-12-20T02:12:16;101097.31;;;5.30;100.00
67931;BME280;63902;52.000;5.954;2023-12-20T02:13:17;101097.31;;;5.28;100.00
67931;BME280;63902;52.000;5.954;2023-12-20T02:14:18;101103.47;;;5.27;100.00
67931;BME280;63902;52.000;5.954;2023-12-20T02:15:19;101097.31;;;5.28;100.00
67931;BME280;63902;52.000;5.954;2023-12-20T02:16:20;101105.19;;;5.28;100.00
67931;BME280;63902;52.000;5.954;2023-12-20T02:17:22;101112.22;;;5.29;100.00
67931;BME280;63902;52.000;5.954;2023-12-20T02:18:22;101110.44;;;5.30;100.00
67931;BME280;63902;52.000;5.954;2023-12-20T02:19:23;101106.06;;;5.29;100.00
67931;BME280;63902;52.000;5.954;2023-12-20T02:20:23;101105.19;;;5.30;100.00
67931;BME280;63902;52.000;5.954;2023-12-20T02:21:31;101104.31;;;5.29;100.00
67931;BME280;63902;52.000;5.954;2023-12-20T02:22:32;101106.97;;;5.29;100.00
67931;BME280;63902;52.000;5.954;2023-12-20T02:23:32;101106.00;;;5.32;100.00
67931;BME280;63902;52.000;5.954;2023-12-20T02:24:33;101106.06;;;5.30;100.00
67931;BME280;63902;52.000;5.954;2023-12-20T02:25:33;101097.25;;;5.33;100.00
67931;BME280;63902;52.000;5.954;2023-12-20T02:26:34;101100.75;;;5.32;100.00
67931;BME280;63902;52.000;5.954;2023-12-20T02:27:35;101097.25;;;5.31;100.00
67931;BME280;63902;52.000;5.954;2023-12-20T02:28:35;101104.28;;;5.32;100.00
67931;BME280;63902;52.000;5.954;2023-12-20T02:29:36;101094.63;;;5.31;100.00
67931;BME280;63902;52.000;5.954;2023-12-20T02:30:36;101100.75;;;5.32;100.00
67931;BME280;63902;52.000;5.954;2023-12-20T02:31:37;101093.81;;;5.29;100.00
67931;BME280;63902;52.000;5.954;2023-12-20T02:32:37;101092.91;;;5.29;100.00
67931;BME280;63902;52.000;5.954;2023-12-20T02:33:38;101085.94;;;5.28;100.00
67931;BME280;63902;52.000;5.954;2023-12-20T02:34:38;101092.03;;;5.30;100.00
67931;BME280;63902;52.000;5.954;2023-12-20T02:35:39;101092.03;;;5.30;100.00
67931;BME280;63902;52.000;5.954;2023-12-20T02:36:40;101088.56;;;5.26;100.00
67931;BME280;63902;52.000;5.954;2023-12-20T02:37:41;101095.50;;;5.32;100.00
67931;BME280;63902;52.000;5.954;2023-12-20T02:38:41;101093.75;;;5.31;100.00
67931;BME280;63902;52.000;5.954;2023-12-20T02:39:42;101100.75;;;5.35;100.00
67931;BME280;63902;52.000;5.954;2023-12-20T02:40:42;101092.84;;;5.35;100.00
67931;BME280;63902;52.000;5.954;2023-12-20T02:41:43;101091.06;;;5.35;100.00
67931;BME280;63902;52.000;5.954;2023-12-20T02:42:43;101085.81;;;5.34;100.00
67931;BME280;63902;52.000;5.954;2023-12-20T02:43:45;101073.69;;;5.27;100.00
67931;BME280;63902;52.000;5.954;2023-12-20T02:44:45;101083.25;;;5.32;100.00
67931;BME280;63902;52.000;5.954;2023-12-20T02:45:46;101081.44;;;5.34;100.00
67931;BME280;63902;52.000;5.954;2023-12-20T02:46:46;101079.69;;;5.35;100.00
67931;BME280;63902;52.000;5.954;2023-12-20T02:47:47;101077.97;;;5.32;100.00
67931;BME280;63902;52.000;5.954;2023-12-20T02:48:47;101082.34;;;5.33;100.00
67931;BME280;63902;52.000;5.954;2023-12-20T02:49:48;101081.44;;;5.34;100.00
67931;BME280;63902;52.000;5.954;2023-12-20T02:50:48;101077.06;;;5.33;100.00
67931;BME280;63902;52.000;5.954;2023-12-20T02:51:50;101068.31;;;5.33;100.00
67931;BME280;63902;52.000;5.954;2023-12-20T02:52:50;101072.72;;;5.32;100.00
67931;BME280;63902;52.000;5.954;2023-12-20T02:53:51;101077.97;;;5.32;100.00
67931;BME280;63902;52.000;5.954;2023-12-20T02:54:51;101078.84;;;5.31;100.00
67931;BME280;63902;52.000;5.954;2023-12-20T02:55:52;101063.16;;;5.27;100.00
67931;BME280;63902;52.000;5.954;2023-12-20T02:56:52;101073.59;;;5.33;100.00
67931;BME280;63902;52.000;5.954;2023-12-20T02:57:53;101070.91;;;5.34;100.00
67931;BME280;63902;52.000;5.954;2023-12-20T02:58:53;101067.41;;;5.34;100.00
67931;BME280;63902;52.000;5.954;2023-12-20T02:59:54;101071.81;;;5.35;100.00
67931;BME280;63902;52.000;5.954;2023-12-20T03:00:54;101069.19;;;5.35;100.00
67931;BME280;63902;52.000;5.954;2023-12-20T03:01:54;101071.75;;;5.36;100.00
67931;BME280;63902;52.000;5.954;2023-12-20T03:02:55;101071.75;;;5.36;100.00
67931;BME280;63902;52.000;5.954;2023-12-20T03:03:55;101072.63;;;5.37;100.00
67931;BME280;63902;52.000;5.954;2023-12-20T03:04:56;101077.00;;;5.38;100.00
67931;BME280;63902;52.000;5.954;2023-12-20T03:05:56;101068.22;;;5.39;100.00
67931;BME280;63902;52.000;5.954;2023-12-20T03:06:58;101069.13;;;5.36;100.00
67931;BME280;63902;52.000;5.954;2023-12-20T03:07:59;101073.47;;;5.39;100.00
67931;BME280;63902;52.000;5.954;2023-12-20T03:08:59;101069.13;;;5.38;100.00
67931;BME280;63902;52.000;5.954;2023-12-20T03:09:59;101071.75;;;5.38;100.00
67931;BME280;63902;52.000;5.954;2023-12-20T03:11:00;101068.22;;;5.37;100.00
67931;BME280;63902;52.000;5.954;2023-12-20T03:12:00;101069.13;;;5.38;100.00
67931;BME280;63902;52.000;5.954;2023-12-20T03:13:01;101062.97;;;5.37;100.00
67931;BME280;63902;52.000;5.954;2023-12-20T03:14:01;101062.97;;;5.37;100.00
67931;BME280;63902;52.000;5.954;2023-12-20T03:15:02;101062.97;;;5.37;100.00
67931;BME280;63902;52.000;5.954;2023-12-20T03:16:08;101060.34;;;5.37;100.00
67931;BME280;63902;52.000;5.954;2023-12-20T03:17:09;101060.38;;;5.34;100.00
67931;BME280;63902;52.000;5.954;2023-12-20T03:18:09;101050.78;;;5.32;100.00
67931;BME280;63902;52.000;5.954;2023-12-20T03:19:09;101062.09;;;5.37;100.00
67931;BME280;63902;52.000;5.954;2023-12-20T03:20:10;101055.06;;;5.37;100.00
67931;BME280;63902;52.000;5.954;2023-12-20T03:21:10;101048.13;;;5.33;100.00
67931;BME280;63902;52.000;5.954;2023-12-20T03:22:12;101044.56;;;5.37;100.00
67931;BME280;63902;52.000;5.954;2023-12-20T03:23:13;101050.66;;;5.39;100.00
67931;BME280;63902;52.000;5.954;2023-12-20T03:24:13;101050.66;;;5.39;100.00
67931;BME280;63902;52.000;5.954;2023-12-20T03:25:13;101055.94;;;5.39;100.00
67931;BME280;63902;52.000;5.954;2023-12-20T03:26:14;101046.28;;;5.40;100.00
67931;BME280;63902;52.000;5.954;2023-12-20T03:27:14;101044.59;;;5.36;100.00
67931;BME280;63902;52.000;5.954;2023-12-20T03:28:15;101053.34;;;5.36;100.00
67931;BME280;63902;52.000;5.954;2023-12-20T03:29:15;101046.38;;;5.35;100.00
67931;BME280;63902;52.000;5.954;2023-12-20T03:30:16;101035.00;;;5.32;100.00
67931;BME280;63902;52.000;5.954;2023-12-20T03:31:16;101053.38;;;5.35;100.00
67931;BME280;63902;52.000;5.954;2023-12-20T03:32:17;101049.84;;;5.36;100.00
67931;BME280;63902;52.000;5.954;2023-12-20T03:33:17;101045.50;;;5.35;100.00
67931;BME280;63902;52.000;5.954;2023-12-20T03:34:18;101041.97;;;5.34;100.00
67931;BME280;63902;52.000;5.954;2023-12-20T03:35:18;101032.25;;;5.39;100.00
67931;BME280;63902;52.000;5.954;2023-12-20T03:36:19;101038.38;;;5.40;100.00
67931;BME280;63902;52.000;5.954;2023-12-20T03:37:21;101039.28;;;5.39;100.00
67931;BME280;63902;52.000;5.954;2023-12-20T03:38:22;101037.50;;;5.39;100.00
67931;BME280;63902;52.000;5.954;2023-12-20T03:39:22;101043.63;;;5.40;100.00
67931;BME280;63902;52.000;5.954;2023-12-20T03:40:23;101038.38;;;5.40;100.00
67931;BME280;63902;52.000;5.954;2023-12-20T03:41:23;101039.28;;;5.41;100.00
67931;BME280;63902;52.000;5.954;2023-12-20T03:42:24;101037.56;;;5.38;100.00
67931;BME280;63902;52.000;5.954;2023-12-20T03:43:24;101044.53;;;5.39;100.00
67931;BME280;63902;52.000;5.954;2023-12-20T03:44:25;101034.94;;;5.38;100.00
67931;BME280;63902;52.000;5.954;2023-12-20T03:45:25;101040.19;;;5.38;100.00
67931;BME280;63902;52.000;5.954;2023-12-20T03:46:26;101039.28;;;5.37;100.00
67931;BME280;63902;52.000;5.954;2023-12-20T03:47:26;101041.97;;;5.36;100.00
67931;BME280;63902;52.000;5.954;2023-12-20T03:48:26;101042.81;;;5.36;100.00
67931;BME280;63902;52.000;5.954;2023-12-20T03:49:27;101044.59;;;5.34;100.00
67931;BME280;63902;52.000;5.954;2023-12-20T03:50:27;101047.28;;;5.33;100.00
67931;BME280;63902;52.000;5.954;2023-12-20T03:51:28;101051.63;;;5.34;100.00
67931;BME280;63902;52.000;5.954;2023-12-20T03:52:30;101040.25;;;5.32;100.00
67931;BME280;63902;52.000;5.954;2023-12-20T03:53:30;101042.88;;;5.33;100.00
67931;BME280;63902;52.000;5.954;2023-12-20T03:54:30;101042.88;;;5.33;100.00
67931;BME280;63902;52.000;5.954;2023-12-20T03:55:31;101051.63;;;5.34;100.00
67931;BME280;63902;52.000;5.954;2023-12-20T03:56:31;101046.41;;;5.32;100.00
67931;BME280;63902;52.000;5.954;2023-12-20T03:57:32;101046.41;;;5.32;100.00
67931;BME280;63902;52.000;5.954;2023-12-20T03:58:32;101044.66;;;5.31;100.00
67931;BME280;63902;52.000;5.954;2023-12-20T03:59:35;101048.25;;;5.27;100.00
67931;BME280;63902;52.000;5.954;2023-12-20T04:00:35;101043.00;;;5.26;100.00
67931;BME280;63902;52.000;5.954;2023-12-20T04:01:35;101050.03;;;5.25;100.00
67931;BME280;63902;52.000;5.954;2023-12-20T04:02:36;101051.78;;;5.25;100.00
67931;BME280;63902;52.000;5.954;2023-12-20T04:03:36;101043.91;;;5.25;100.00
67931;BME280;63902;52.000;5.954;2023-12-20T04:04:37;101051.78;;;5.25;100.00
67931;BME280;63902;52.000;5.954;2023-12-20T04:05:37;101043.94;;;5.22;100.00
67931;BME280;63902;52.000;5.954;2023-12-20T04:06:38;101043.91;;;5.23;100.00
67931;BME280;63902;52.000;5.954;2023-12-20T04:07:40;101047.44;;;5.24;100.00
67931;BME280;63902;52.000;5.954;2023-12-20T04:08:40;101043.03;;;5.24;100.00
67931;BME280;63902;52.000;5.954;2023-12-20T04:09:41;101037.78;;;5.23;100.00
67931;BME280;63902;52.000;5.954;2023-12-20T04:10:41;101037.72;;;5.26;100.00
67931;BME280;63902;52.000;5.954;2023-12-20T04:11:42;101029.84;;;5.26;100.00
67931;BME280;63902;52.000;5.954;2023-12-20T04:12:42;101040.38;;;5.26;100.00
67931;BME280;63902;52.000;5.954;2023-12-20T04:13:42;101036.00;;;5.25;100.00
67931;BME280;63902;52.000;5.954;2023-12-20T04:14:43;101046.47;;;5.26;100.00
67931;BME280;63902;52.000;5.954;2023-12-20T04:15:43;101044.75;;;5.25;100.00
67931;BME280;63902;52.000;5.954;2023-12-20T04:16:44;101043.91;;;5.25;100.00
67931;BME280;63902;52.000;5.954;2023-12-20T04:17:44;101047.44;;;5.24;100.00
67931;BME280;63902;52.000;5.954;2023-12-20T04:18:45;101042.19;;;5.21;100.00
67931;BME280;63902;52.000;5.954;2023-12-20T04:19:45;101048.31;;;5.23;100.00
67931;BME280;63902;52.000;5.954;2023-12-20T04:20:46;101047.44;;;5.24;100.00
67931;BME280;63902;52.000;5.954;2023-12-20T04:21:46;101039.56;;;5.22;100.00
67931;BME280;63902;52.000;5.954;2023-12-20T04:22:48;101036.91;;;5.24;100.00
67931;BME280;63902;52.000;5.954;2023-12-20T04:23:48;101048.25;;;5.27;100.00
67931;BME280;63902;52.000;5.954;2023-12-20T04:24:49;101034.22;;;5.27;100.00
67931;BME280;63902;52.000;5.954;2023-12-20T04:25:49;101036.81;;;5.30;100.00
67931;BME280;63902;52.000;5.954;2023-12-20T04:26:50;101037.66;;;5.30;100.00
67931;BME280;63902;52.000;5.954;2023-12-20T04:27:50;101049.88;;;5.34;100.00
67931;BME280;63902;52.000;5.954;2023-12-20T04:28:51;101041.97;;;5.36;100.00
67931;BME280;63902;52.000;5.954;2023-12-20T04:29:51;101040.19;;;5.36;100.00
67931;BME280;63902;52.000;5.954;2023-12-20T04:30:51;101038.44;;;5.37;100.00
67931;BME280;63902;52.000;5.954;2023-12-20T04:31:52;101043.69;;;5.37;100.00
67931;BME280;63902;52.000;5.954;2023-12-20T04:32:52;101037.50;;;5.39;100.00
67931;BME280;63902;52.000;5.954;2023-12-20T04:33:53;101044.50;;;5.42;100.00
67931;BME280;63902;52.000;5.954;2023-12-20T04:34:53;101043.63;;;5.42;100.00
67931;BME280;63902;52.000;5.954;2023-12-20T04:35:54;101045.41;;;5.39;100.00
67931;BME280;63902;52.000;5.954;2023-12-20T04:36:54;101048.88;;;5.42;100.00
67931;BME280;63902;52.000;5.954;2023-12-20T04:37:56;101043.63;;;5.40;100.00
67931;BME280;63902;52.000;5.954;2023-12-20T04:38:57;101047.16;;;5.41;100.00
67931;BME280;63902;52.000;5.954;2023-12-20T04:39:57;101043.59;;;5.43;100.00
67931;BME280;63902;52.000;5.954;2023-12-20T04:40:58;101037.47;;;5.43;100.00
67931;BME280;63902;52.000;5.954;2023-12-20T04:41:58;101039.16;;;5.47;100.00
67931;BME280;63902;52.000;5.954;2023-12-20T04:42:58;101036.50;;;5.48;100.00
67931;BME280;63902;52.000;5.954;2023-12-20T04:43:59;101039.13;;;5.48;100.00
67931;BME280;63902;52.000;5.954;2023-12-20T04:44:59;101037.34;;;5.50;100.00
67931;BME280;63902;52.000;5.954;2023-12-20T04:46:00;101045.22;;;5.50;100.00
67931;BME280;63902;52.000;5.954;2023-12-20T04:47:00;101046.97;;;5.51;100.00
67931;BME280;63902;52.000;5.954;2023-12-20T04:48:01;101045.19;;;5.53;100.00
67931;BME280;63902;52.000;5.954;2023-12-20T04:49:02;101046.91;;;5.54;100.00
67931;BME280;63902;52.000;5.954;2023-12-20T04:50:03;101047.81;;;5.55;100.00
67931;BME280;63902;52.000;5.954;2023-12-20T04:51:04;101049.50;;;5.57;100.00
67931;BME280;63902;52.000;5.954;2023-12-20T04:52:04;101046.88;;;5.57;100.00
67931;BME280;63902;52.000;5.954;2023-12-20T04:53:06;101045.06;;;5.59;100.00
67931;BME280;63902;52.000;5.954;2023-12-20T04:54:07;101039.75;;;5.63;100.00
67931;BME280;63902;52.000;5.954;2023-12-20T04:55:07;101045.03;;;5.63;100.00
67931;BME280;63902;52.000;5.954;2023-12-20T04:56:08;101045.91;;;5.63;100.00
67931;BME280;63902;52.000;5.954;2023-12-20T04:57:09;101044.19;;;5.60;100.00
67931;BME280;63902;52.000;5.954;2023-12-20T04:58:09;101041.50;;;5.64;100.00
67931;BME280;63902;52.000;5.954;2023-12-20T04:59:09;101045.81;;;5.68;100.00
67931;BME280;63902;52.000;5.954;2023-12-20T05:00:11;101037.06;;;5.67;100.00
67931;BME280;63902;52.000;5.954;2023-12-20T05:01:12;101043.13;;;5.71;100.00
67931;BME280;63902;52.000;5.954;2023-12-20T05:02:13;101044.03;;;5.70;100.00
67931;BME280;63902;52.000;5.954;2023-12-20T05:03:13;101041.41;;;5.70;100.00
67931;BME280;63902;52.000;5.954;2023-12-20T05:04:14;101041.47;;;5.67;100.00
67931;BME280;63902;52.000;5.954;2023-12-20T05:05:14;101040.59;;;5.66;100.00
67931;BME280;63902;52.000;5.954;2023-12-20T05:06:14;101038.84;;;5.65;100.00
67931;BME280;63902;52.000;5.954;2023-12-20T05:07:15;101037.06;;;5.66;100.00
67931;BME280;63902;52.000;5.954;2023-12-20T05:08:17;101042.31;;;5.69;100.00
67931;BME280;63902;52.000;5.954;2023-12-20T05:09:17;101029.09;;;5.70;100.00
67931;BME280;63902;52.000;5.954;2023-12-20T05:10:18;101032.59;;;5.72;100.00
67931;BME280;63902;52.000;5.954;2023-12-20T05:11:18;101025.56;;;5.73;100.00
67931;BME280;63902;52.000;5.954;2023-12-20T05:12:19;101022.06;;;5.72;100.00
67931;BME280;63902;52.000;5.954;2023-12-20T05:13:19;101014.97;;;5.76;100.00
67931;BME280;63902;52.000;5.954;2023-12-20T05:14:20;101022.81;;;5.79;100.00
67931;BME280;63902;52.000;5.954;2023-12-20T05:15:20;101021.03;;;5.79;100.00
67931;BME280;63902;52.000;5.954;2023-12-20T05:16:20;101016.66;;;5.80;100.00
67931;BME280;63902;52.000;5.954;2023-12-20T05:17:21;101016.63;;;5.81;100.00